CA-0442 weather

Little's Farm
Ontario, Canada

Public forecast

Using degrees Celsius for public forecast. Weather courtesy of forecast.io.

Closest aviation weather report (METAR) to Little's Farm

Closest report is Lester B. Pearson International Airport, 10.0 nm (18.5 km) SE. Retrieved 2020/07/04 12:00 UTC (42 minutes ago):

CYYZ 041200Z 36010KT 15SM FEW250 23/13 A3001 RMK CI1 SLP160 DENSITY ALT 1500FT

Closest aviation forecast (TAF) to Little's Farm

Closest forecast is Lester B. Pearson International Airport, 10.0 nm (18.5 km) SE. Retrieved 2020/07/04 12:39 UTC (3 minutes ago):

TAF CYYZ 041138Z 0412/0518 35012KT P6SM FEW250 FM041600 04008KT P6SM SKC BECMG 0417/0419 17010KT BECMG 0423/0501 36008KT FM051500 30010KT P6SM SCT100 RMK NXT FCST BY 041500Z